createdAt,value
2019-02-05T00:06:34.211Z,6.67
2019-02-05T00:09:01.086Z,6.83
2019-02-05T00:11:28.256Z,7.07
2019-02-05T00:13:55.397Z,7.20
2019-02-05T00:16:22.267Z,6.87
2019-02-05T00:18:51.632Z,6.47
2019-02-05T00:21:18.029Z,6.93
2019-02-05T00:23:45.036Z,7.40
2019-02-05T00:26:11.888Z,6.70
2019-02-05T00:28:38.885Z,7.17
2019-02-05T00:31:05.723Z,7.00
2019-02-05T00:33:32.479Z,6.80
2019-02-05T00:36:11.642Z,6.50
2019-02-05T00:38:38.496Z,6.50
2019-02-05T00:41:05.647Z,6.30
2019-02-05T00:43:32.620Z,7.03
2019-02-05T00:45:59.500Z,6.83
2019-02-05T00:48:26.250Z,6.87
2019-02-05T00:50:53.127Z,7.00
2019-02-05T00:53:20.094Z,7.50
2019-02-05T00:55:46.844Z,6.70
2019-02-05T00:58:13.785Z,7.63
2019-02-05T01:00:40.908Z,7.33
2019-02-05T01:03:07.748Z,6.80
2019-02-05T01:05:35.067Z,7.03
2019-02-05T01:08:01.951Z,6.87
2019-02-05T01:10:28.795Z,7.63
2019-02-05T01:12:56.098Z,7.27
2019-02-05T01:16:03.881Z,7.27
2019-02-05T01:18:30.869Z,6.70
2019-02-05T01:20:57.919Z,7.37
2019-02-05T01:23:24.868Z,7.20
2019-02-05T01:25:51.693Z,7.70
2019-02-05T01:28:18.442Z,6.77
2019-02-05T01:30:45.184Z,7.40
2019-02-05T01:33:12.100Z,6.57
2019-02-05T01:35:38.839Z,7.17
2019-02-05T01:38:20.541Z,7.43
2019-02-05T01:40:47.380Z,8.10
2019-02-05T01:43:14.123Z,7.37
2019-02-05T01:45:41.318Z,7.10
2019-02-05T01:48:08.150Z,7.00
2019-02-05T01:50:35.007Z,7.03
2019-02-05T01:53:44.841Z,6.47
2019-02-05T01:56:11.673Z,7.00
2019-02-05T01:58:38.404Z,6.63
2019-02-05T02:01:06.050Z,6.63
2019-02-05T02:03:32.889Z,6.40
2019-02-05T02:05:59.645Z,6.40
2019-02-05T02:08:26.605Z,6.87
2019-02-05T02:10:53.354Z,6.40
2019-02-05T02:13:20.532Z,6.97
2019-02-05T02:15:47.325Z,6.13
2019-02-05T02:18:14.453Z,6.53
2019-02-05T02:20:41.203Z,6.50
2019-02-05T02:23:08.291Z,5.80
2019-02-05T02:25:35.113Z,6.93
2019-02-05T02:28:01.846Z,6.53
2019-02-05T02:30:48.541Z,6.17
2019-02-05T02:33:15.458Z,6.20
2019-02-05T02:35:42.220Z,5.90
2019-02-05T02:38:09.025Z,6.40
2019-02-05T02:40:35.832Z,6.27
2019-02-05T02:43:02.953Z,6.33
2019-02-05T02:45:29.811Z,6.20
2019-02-05T02:47:56.737Z,5.57
2019-02-05T02:50:23.790Z,6.00
2019-02-05T02:52:50.697Z,6.00
2019-02-05T02:55:17.564Z,6.20
2019-02-05T02:57:44.691Z,6.30
2019-02-05T03:00:13.999Z,6.03
2019-02-05T03:02:40.971Z,6.40
2019-02-05T03:05:31.754Z,6.07
2019-02-05T03:07:58.516Z,6.00
2019-02-05T03:10:27.055Z,5.90
2019-02-05T03:12:54.517Z,6.43
2019-02-05T03:16:02.302Z,6.17
2019-02-05T03:18:29.101Z,6.10
2019-02-05T03:20:56.251Z,5.83
2019-02-05T03:23:23.355Z,6.73
2019-02-05T03:25:50.492Z,6.03
2019-02-05T03:28:17.599Z,6.33
2019-02-05T03:30:44.625Z,5.83
2019-02-05T03:33:11.524Z,6.27
2019-02-05T03:35:38.553Z,6.37
2019-02-05T03:38:05.410Z,5.77
2019-02-05T03:43:49.318Z,6.40
2019-02-05T03:46:57.089Z,6.30
2019-02-05T03:49:23.879Z,5.60
2019-02-05T03:52:34.709Z,6.40
2019-02-05T03:55:40.760Z,5.63
2019-02-05T03:58:46.659Z,6.03
2019-02-05T04:01:52.615Z,6.10
2019-02-05T04:04:58.476Z,5.83
2019-02-05T04:07:57.408Z,5.87
2019-02-05T04:11:03.272Z,5.93
2019-02-05T04:14:09.263Z,6.20
2019-02-05T04:17:15.128Z,6.20
2019-02-05T04:20:21.383Z,6.30
2019-02-05T04:23:24.041Z,5.60
2019-02-05T04:26:30.042Z,6.33
2019-02-05T04:29:35.935Z,6.53
2019-02-05T04:32:42.157Z,5.60
2019-02-05T04:35:48.043Z,6.10
2019-02-05T04:38:54.034Z,5.90
2019-02-05T04:42:00.399Z,5.90
2019-02-05T04:45:06.720Z,5.63
2019-02-05T04:48:12.898Z,5.50
2019-02-05T04:51:18.850Z,5.90
2019-02-05T04:54:24.771Z,6.30
2019-02-05T04:57:30.763Z,5.73
2019-02-05T05:00:36.637Z,7.03
2019-02-05T05:03:22.709Z,6.03
2019-02-05T05:06:13.655Z,6.10
2019-02-05T05:09:03.944Z,6.13
2019-02-05T05:11:30.831Z,6.60
2019-02-05T05:13:57.715Z,5.80
2019-02-05T05:16:24.566Z,5.53
2019-02-05T05:18:51.354Z,6.53
2019-02-05T05:21:59.207Z,6.77
2019-02-05T05:24:26.152Z,6.37
2019-02-05T05:26:53.174Z,7.10
2019-02-05T05:29:20.001Z,5.90
2019-02-05T05:32:27.810Z,6.57
2019-02-05T05:34:55.097Z,6.30
2019-02-05T05:37:21.973Z,6.67
2019-02-05T05:39:48.761Z,6.90
2019-02-05T05:42:15.704Z,6.63
2019-02-05T05:44:44.408Z,7.27
2019-02-05T05:47:11.232Z,6.60
2019-02-05T05:49:38.465Z,6.90
2019-02-05T05:52:05.594Z,6.30
2019-02-05T05:54:32.371Z,6.90
2019-02-05T05:56:59.291Z,5.93
2019-02-05T05:59:26.479Z,6.47
2019-02-05T06:01:53.328Z,6.23
2019-02-05T06:04:20.537Z,6.10
2019-02-05T06:06:47.288Z,6.50
2019-02-05T06:09:14.397Z,6.37
2019-02-05T06:11:41.611Z,6.13
2019-02-05T06:14:08.474Z,6.23
2019-02-05T06:16:35.117Z,6.03
2019-02-05T06:19:02.207Z,5.50
2019-02-05T06:21:29.346Z,6.73
2019-02-05T06:23:56.088Z,6.07
2019-02-05T06:26:22.989Z,5.87
2019-02-05T06:28:49.632Z,5.70
2019-02-05T06:31:16.470Z,6.23
2019-02-05T06:33:43.801Z,5.77
2019-02-05T06:36:11.160Z,6.17
2019-02-05T06:38:38.002Z,5.63
2019-02-05T06:41:04.915Z,6.93
2019-02-05T06:43:32.255Z,5.57
2019-02-05T06:46:12.602Z,6.10
2019-02-05T06:48:41.197Z,5.73
2019-02-05T06:51:08.026Z,6.17
2019-02-05T06:53:34.820Z,6.60
2019-02-05T06:56:22.974Z,6.37
2019-02-05T06:58:50.110Z,5.87
2019-02-05T07:01:17.261Z,6.07
2019-02-05T07:03:43.995Z,6.73
2019-02-05T07:06:10.898Z,6.23
2019-02-05T07:08:37.727Z,6.10
2019-02-05T07:11:04.924Z,6.47
2019-02-05T07:13:31.761Z,5.73
2019-02-05T07:15:58.881Z,6.20
2019-02-05T07:18:25.613Z,6.30
2019-02-05T07:20:52.281Z,5.77
2019-02-05T07:23:19.036Z,6.30
2019-02-05T07:25:45.777Z,5.80
2019-02-05T07:28:12.569Z,6.20
2019-02-05T07:30:39.290Z,6.57
2019-02-05T07:33:06.311Z,6.43
2019-02-05T07:35:33.682Z,5.77
2019-02-05T07:38:00.864Z,6.37
2019-02-05T07:40:27.682Z,5.50
2019-02-05T07:42:54.634Z,6.03
2019-02-05T07:45:21.574Z,5.87
2019-02-05T07:47:48.514Z,5.97
2019-02-05T07:50:17.665Z,5.87
2019-02-05T07:52:44.494Z,6.30
2019-02-05T07:55:11.340Z,6.50
2019-02-05T07:57:38.207Z,5.53
2019-02-05T08:00:09.309Z,6.30
2019-02-05T08:02:36.032Z,6.10
2019-02-05T08:05:03.673Z,5.80
2019-02-05T08:07:30.522Z,6.07
2019-02-05T08:09:57.359Z,5.50
2019-02-05T08:12:24.405Z,6.17
2019-02-05T08:14:51.157Z,6.20
2019-02-05T08:17:18.110Z,5.43
2019-02-05T08:19:44.975Z,5.43
2019-02-05T08:22:12.005Z,6.13
2019-02-05T08:24:38.743Z,6.17
2019-02-05T08:27:05.577Z,5.73
2019-02-05T08:29:32.497Z,5.70
2019-02-05T08:31:59.135Z,6.10
2019-02-05T08:34:25.935Z,5.77
2019-02-05T08:36:52.813Z,5.73
2019-02-05T08:39:19.647Z,5.87
2019-02-05T08:41:47.014Z,6.17
2019-02-05T08:44:14.352Z,6.60
2019-02-05T08:46:41.186Z,6.60
2019-02-05T08:49:08.403Z,6.10
2019-02-05T08:51:35.559Z,7.07
2019-02-05T08:54:02.935Z,6.83
2019-02-05T08:56:30.451Z,6.63
2019-02-05T08:58:57.184Z,6.00
2019-02-05T09:01:24.019Z,6.20
2019-02-05T09:03:50.800Z,6.17
2019-02-05T09:06:17.647Z,5.53
2019-02-05T09:08:44.467Z,6.40
2019-02-05T09:11:11.780Z,5.93
2019-02-05T09:13:38.650Z,6.27
2019-02-05T09:16:05.494Z,6.60
2019-02-05T09:18:32.514Z,6.50
2019-02-05T09:20:59.238Z,6.60
2019-02-05T09:23:26.076Z,6.90
2019-02-05T09:25:53.085Z,5.93
2019-02-05T09:28:20.217Z,6.30
2019-02-05T09:30:47.070Z,6.73
2019-02-05T09:36:28.067Z,7.30
2019-02-05T09:38:54.714Z,7.40
2019-02-05T09:41:21.558Z,7.10
2019-02-05T09:44:07.869Z,7.53
2019-02-05T09:46:34.895Z,7.70
2019-02-05T09:49:03.813Z,7.87
2019-02-05T09:51:44.368Z,8.37
2019-02-05T09:54:11.125Z,7.73
2019-02-05T09:56:38.003Z,8.10
2019-02-05T09:59:04.950Z,7.83
2019-02-05T10:01:31.788Z,8.73
2019-02-05T10:03:59.081Z,8.37
2019-02-05T10:06:26.071Z,8.13
2019-02-05T10:08:52.955Z,7.87
2019-02-05T10:11:20.123Z,9.43
2019-02-05T10:13:47.342Z,8.57
2019-02-05T10:16:14.640Z,8.77
2019-02-05T10:18:41.483Z,9.00
2019-02-05T10:21:08.405Z,9.13
2019-02-05T10:23:35.161Z,8.53
2019-02-05T10:26:02.068Z,9.67
2019-02-05T10:28:28.928Z,9.13
2019-02-05T10:30:55.989Z,9.40
2019-02-05T10:33:22.741Z,9.77
2019-02-05T10:35:49.644Z,9.37
2019-02-05T10:38:16.514Z,9.70
2019-02-05T10:40:43.738Z,9.83
2019-02-05T10:43:10.914Z,10.73
2019-02-05T10:45:37.785Z,10.10
2019-02-05T10:51:44.480Z,9.63
2019-02-05T10:54:24.635Z,10.20
2019-02-05T10:56:51.873Z,10.83
2019-02-05T10:59:18.917Z,10.17
2019-02-05T11:01:46.336Z,10.63
2019-02-05T11:04:15.288Z,10.27
2019-02-05T11:06:42.064Z,9.70
2019-02-05T11:09:09.673Z,10.67
2019-02-05T11:11:37.234Z,11.00
2019-02-05T11:14:04.241Z,11.93
2019-02-05T11:16:31.809Z,10.93
2019-02-05T11:18:58.752Z,11.13
2019-02-05T11:21:25.638Z,11.67
2019-02-05T11:23:56.399Z,10.63
2019-02-05T11:26:23.836Z,11.07
2019-02-05T11:28:50.755Z,10.50
2019-02-05T11:31:17.701Z,10.10
2019-02-05T11:33:45.019Z,11.60
2019-02-05T11:36:12.236Z,11.60
2019-02-05T11:38:39.090Z,10.43
2019-02-05T11:41:06.011Z,11.80
2019-02-05T11:43:33.218Z,11.07
2019-02-05T11:46:00.187Z,11.07
2019-02-05T11:48:27.121Z,10.90
2019-02-05T11:50:55.176Z,11.97
2019-02-05T11:53:22.496Z,12.20
2019-02-05T11:55:50.026Z,10.93
2019-02-05T11:58:16.958Z,10.90
2019-02-05T12:01:03.547Z,12.80
2019-02-05T12:03:30.379Z,12.10
2019-02-05T12:05:57.108Z,11.50
2019-02-05T12:08:24.168Z,11.27
2019-02-05T12:10:51.444Z,11.60
2019-02-05T12:13:18.590Z,11.43
2019-02-05T12:15:46.121Z,11.53
2019-02-05T12:18:13.306Z,12.00
2019-02-05T12:20:41.966Z,12.13
2019-02-05T12:23:08.848Z,11.47
2019-02-05T12:25:35.946Z,12.47
2019-02-05T12:30:57.526Z,11.60
2019-02-05T12:33:27.746Z,12.27
2019-02-05T12:35:55.019Z,11.57
2019-02-05T12:38:41.410Z,11.40
2019-02-05T12:41:08.857Z,11.97
2019-02-05T12:43:36.157Z,12.33
2019-02-05T12:46:04.388Z,11.73
2019-02-05T12:48:32.268Z,12.10
2019-02-05T12:50:59.908Z,11.70
2019-02-05T12:53:26.818Z,12.70
2019-02-05T12:55:53.557Z,11.23
2019-02-05T12:58:20.460Z,11.27
2019-02-05T13:00:58.684Z,12.17
2019-02-05T13:03:18.739Z,12.63
2019-02-05T13:05:45.682Z,12.10
2019-02-05T13:08:12.706Z,12.13
2019-02-05T13:10:41.850Z,12.70
2019-02-05T13:13:09.267Z,11.63
2019-02-05T13:15:36.166Z,11.73
2019-02-05T13:18:24.362Z,11.87
2019-02-05T13:20:51.225Z,12.67
2019-02-05T13:23:18.129Z,11.83
2019-02-05T13:25:45.153Z,12.30
2019-02-05T13:28:12.912Z,11.77
2019-02-05T13:30:39.754Z,12.87
2019-02-05T13:33:26.204Z,13.37
2019-02-05T13:35:53.219Z,12.30
2019-02-05T13:38:20.389Z,12.63
2019-02-05T13:40:47.739Z,13.77
2019-02-05T13:43:14.589Z,16.27
2019-02-05T13:45:41.808Z,17.93
2019-02-05T13:48:09.142Z,17.07
2019-02-05T13:50:36.111Z,14.63
2019-02-05T13:53:03.258Z,13.67
2019-02-05T13:56:12.073Z,13.17
2019-02-05T13:58:38.807Z,18.67
2019-02-05T14:01:05.704Z,17.57
2019-02-05T14:03:32.495Z,15.73
2019-02-05T14:05:59.318Z,14.30
2019-02-05T14:08:26.071Z,13.50
2019-02-05T14:11:33.907Z,15.20
2019-02-05T14:14:00.530Z,13.77
2019-02-05T14:16:47.514Z,13.83
2019-02-05T14:19:14.570Z,13.23
2019-02-05T14:21:41.989Z,12.80
2019-02-05T14:24:09.207Z,13.50
2019-02-05T14:26:36.629Z,13.33
2019-02-05T14:29:03.542Z,13.43
2019-02-05T14:31:31.693Z,12.43
2019-02-05T14:33:58.634Z,13.43
2019-02-05T14:36:25.722Z,12.23
2019-02-05T14:38:52.750Z,13.17
2019-02-05T14:41:19.804Z,13.50
2019-02-05T14:43:46.688Z,12.63
2019-02-05T14:46:13.669Z,13.53
2019-02-05T14:48:40.591Z,12.67
2019-02-05T14:51:07.481Z,13.73
2019-02-05T14:53:34.523Z,13.67
2019-02-05T14:56:03.478Z,13.33
2019-02-05T14:58:30.310Z,13.80
2019-02-05T15:00:57.206Z,14.23
2019-02-05T15:03:24.122Z,15.90
2019-02-05T15:05:51.129Z,12.53
2019-02-05T15:08:18.472Z,13.73
2019-02-05T15:10:45.354Z,13.67
2019-02-05T15:13:12.418Z,14.57
2019-02-05T15:15:39.781Z,12.83
2019-02-05T15:18:09.216Z,14.03
2019-02-05T15:20:41.488Z,13.03
2019-02-05T15:23:08.900Z,13.53
2019-02-05T15:25:35.885Z,13.77
2019-02-05T15:30:56.938Z,13.67
2019-02-05T15:33:43.293Z,12.93
2019-02-05T15:36:31.594Z,12.90
2019-02-05T15:38:58.869Z,13.27
2019-02-05T15:41:25.691Z,13.20
2019-02-05T15:43:52.748Z,14.33
2019-02-05T15:46:20.101Z,12.87
2019-02-05T15:48:47.225Z,13.87
2019-02-05T15:51:14.178Z,13.10
2019-02-05T15:53:41.006Z,13.60
2019-02-05T15:56:07.836Z,13.87
2019-02-05T15:58:34.609Z,12.47
2019-02-05T16:01:01.326Z,13.43
2019-02-05T16:03:28.038Z,13.57
2019-02-05T16:05:55.076Z,14.13
2019-02-05T16:08:21.990Z,13.73
2019-02-05T16:10:48.982Z,13.63
2019-02-05T16:13:15.763Z,13.37
2019-02-05T16:15:42.750Z,14.20
2019-02-05T16:18:09.472Z,13.67
2019-02-05T16:20:36.610Z,13.00
2019-02-05T16:23:03.544Z,13.67
2019-02-05T16:25:30.492Z,13.57
2019-02-05T16:27:57.334Z,13.73
2019-02-05T16:30:24.338Z,14.37
2019-02-05T16:32:51.144Z,13.73
2019-02-05T16:35:17.916Z,14.07
2019-02-05T16:37:45.185Z,14.50
2019-02-05T16:40:15.139Z,13.20
2019-02-05T16:42:42.218Z,13.43
2019-02-05T16:45:12.834Z,13.87
2019-02-05T16:47:39.549Z,14.13
2019-02-05T16:50:10.947Z,13.60
2019-02-05T16:52:37.658Z,14.23
2019-02-05T16:55:04.919Z,14.33
2019-02-05T16:57:31.722Z,13.27
2019-02-05T16:59:58.555Z,15.30
2019-02-05T17:02:29.031Z,14.27
2019-02-05T17:04:54.074Z,14.90
2019-02-05T17:07:33.646Z,14.50
2019-02-05T17:10:00.494Z,13.53
2019-02-05T17:12:27.229Z,15.03
2019-02-05T17:14:54.060Z,15.83
2019-02-05T17:17:21.147Z,14.37
2019-02-05T17:19:48.172Z,15.37
2019-02-05T17:22:15.187Z,15.03
2019-02-05T17:24:42.514Z,14.60
2019-02-05T17:27:09.807Z,14.67
2019-02-05T17:29:36.972Z,15.17
2019-02-05T17:32:03.865Z,14.67
2019-02-05T17:34:50.122Z,14.73
2019-02-05T17:37:17.104Z,15.23
2019-02-05T17:39:44.081Z,14.87
2019-02-05T17:42:10.797Z,15.20
2019-02-05T17:44:37.470Z,14.70
2019-02-05T17:47:04.577Z,13.77
2019-02-05T17:49:33.211Z,14.80
2019-02-05T17:52:00.079Z,16.13
2019-02-05T17:54:26.879Z,15.17
2019-02-05T17:56:53.979Z,15.20
2019-02-05T17:59:21.034Z,15.37
2019-02-05T18:01:48.049Z,14.80
2019-02-05T18:04:14.788Z,15.30
2019-02-05T18:06:41.717Z,15.43
2019-02-05T18:09:08.800Z,14.87
2019-02-05T18:11:35.518Z,15.60
2019-02-05T18:14:02.527Z,14.23
2019-02-05T18:16:29.151Z,15.47
2019-02-05T18:18:56.137Z,15.57
2019-02-05T18:21:23.185Z,15.27
2019-02-05T18:23:50.118Z,15.47
2019-02-05T18:26:17.678Z,15.17
2019-02-05T18:28:44.478Z,15.30
2019-02-05T18:31:11.406Z,17.53
2019-02-05T18:33:38.572Z,15.60
2019-02-05T18:36:05.929Z,15.63
2019-02-05T18:38:32.885Z,16.97
2019-02-05T18:40:59.661Z,16.97
2019-02-05T18:43:26.823Z,16.90
2019-02-05T18:45:53.624Z,17.03
2019-02-05T18:48:20.342Z,17.57
2019-02-05T18:50:47.112Z,17.50
2019-02-05T18:53:14.147Z,17.07
2019-02-05T18:55:41.055Z,18.00
2019-02-05T18:58:09.719Z,17.90
2019-02-05T19:00:38.895Z,19.83
2019-02-05T19:03:15.000Z,18.33
2019-02-05T19:05:36.789Z,17.23
2019-02-05T19:08:04.822Z,18.37
2019-02-05T19:10:53.075Z,17.60
2019-02-05T19:13:20.392Z,17.57
2019-02-05T19:15:47.525Z,18.13
2019-02-05T19:18:14.817Z,18.50
2019-02-05T19:20:41.779Z,18.93
2019-02-05T19:23:09.013Z,19.00
2019-02-05T19:25:55.546Z,19.17
2019-02-05T19:28:42.293Z,18.90
2019-02-05T19:31:28.848Z,18.97
2019-02-05T19:33:56.014Z,18.57
2019-02-05T19:36:24.647Z,19.30
2019-02-05T19:38:51.524Z,18.57
2019-02-05T19:41:18.396Z,19.43
2019-02-05T19:43:45.663Z,19.40
2019-02-05T19:46:32.108Z,19.97
2019-02-05T19:49:21.742Z,18.07
2019-02-05T19:51:47.303Z,19.63
2019-02-05T19:54:14.522Z,18.70
2019-02-05T19:56:41.704Z,18.37
2019-02-05T19:59:10.612Z,19.00
2019-02-05T20:01:38.087Z,20.20
2019-02-05T20:04:05.597Z,19.20
2019-02-05T20:06:32.537Z,18.77
2019-02-05T20:09:01.342Z,18.13
2019-02-05T20:11:28.508Z,18.33
2019-02-05T20:13:55.296Z,18.43
2019-02-05T20:16:22.042Z,17.77
2019-02-05T20:18:48.947Z,18.80
2019-02-05T20:21:16.278Z,18.80
2019-02-05T20:23:42.999Z,18.33
2019-02-05T20:26:09.999Z,18.07
2019-02-05T20:28:38.906Z,18.03
2019-02-05T20:31:06.030Z,18.30
2019-02-05T20:33:32.758Z,18.47
2019-02-05T20:35:59.664Z,18.37
2019-02-05T20:38:26.484Z,18.67
2019-02-05T20:40:53.520Z,18.60
2019-02-05T20:43:20.420Z,19.27
2019-02-05T20:45:47.544Z,19.40
2019-02-05T20:48:16.268Z,19.07
2019-02-05T20:50:43.089Z,18.83
2019-02-05T20:53:14.114Z,17.93
2019-02-05T20:55:38.885Z,18.70
2019-02-05T20:58:05.750Z,18.27
2019-02-05T21:00:32.604Z,18.00
2019-02-05T21:02:59.711Z,17.60
2019-02-05T21:05:26.606Z,17.90
2019-02-05T21:07:53.629Z,18.10
2019-02-05T21:10:21.195Z,17.63
2019-02-05T21:12:48.521Z,17.13
2019-02-05T21:15:15.608Z,17.27
2019-02-05T21:17:42.441Z,17.10
2019-02-05T21:20:11.035Z,16.43
2019-02-05T21:22:39.785Z,18.10
2019-02-05T21:28:10.000Z,17.40
2019-02-05T21:30:37.243Z,16.43
2019-02-05T21:33:04.043Z,17.63
2019-02-05T21:35:31.235Z,17.33
2019-02-05T21:37:59.041Z,16.83
2019-02-05T21:40:26.046Z,17.07
2019-02-05T21:42:53.960Z,16.63
2019-02-05T21:45:22.051Z,16.03
2019-02-05T21:47:56.896Z,16.03
2019-02-05T21:50:24.132Z,16.93
2019-02-05T21:52:51.691Z,17.13
2019-02-05T21:55:19.316Z,16.47
2019-02-05T21:57:46.684Z,16.93
2019-02-05T22:00:17.157Z,17.77
2019-02-05T22:02:44.916Z,16.57
2019-02-05T22:05:11.920Z,17.07
2019-02-05T22:07:39.030Z,18.30
2019-02-05T22:10:06.141Z,17.47
2019-02-05T22:12:32.926Z,17.60
2019-02-05T22:15:12.445Z,16.30
2019-02-05T22:17:39.581Z,16.73
2019-02-05T22:20:09.593Z,16.40
2019-02-05T22:22:36.648Z,17.03
2019-02-05T22:25:09.959Z,16.97
2019-02-05T22:27:37.388Z,16.20
2019-02-05T22:30:28.320Z,16.43
2019-02-05T22:33:37.292Z,16.07
2019-02-05T22:36:05.676Z,14.97
2019-02-05T22:38:33.551Z,15.63
2019-02-05T22:41:00.867Z,16.10
2019-02-05T22:43:28.066Z,15.57
2019-02-05T22:45:55.664Z,16.33
2019-02-05T22:48:25.439Z,15.47
2019-02-05T22:50:52.463Z,15.77
2019-02-05T22:53:20.076Z,15.53
2019-02-05T22:55:48.056Z,15.23
2019-02-05T22:58:15.512Z,15.87
2019-02-05T23:01:21.368Z,14.80
2019-02-05T23:04:09.988Z,14.90
2019-02-05T23:06:58.791Z,14.43
2019-02-05T23:10:04.775Z,14.07
2019-02-05T23:12:56.538Z,14.40
2019-02-05T23:15:25.062Z,14.53
2019-02-05T23:17:53.835Z,14.80
2019-02-05T23:20:21.770Z,14.60
2019-02-05T23:22:49.148Z,13.00
2019-02-05T23:25:15.975Z,14.00
2019-02-05T23:27:42.803Z,14.87
2019-02-05T23:30:29.327Z,13.90
2019-02-05T23:32:56.708Z,13.87
2019-02-05T23:35:25.377Z,14.33
2019-02-05T23:37:52.165Z,12.83
2019-02-05T23:40:18.987Z,14.00
2019-02-05T23:42:45.758Z,13.77
2019-02-05T23:46:01.460Z,13.17
2019-02-05T23:48:22.683Z,12.07
2019-02-05T23:50:49.615Z,13.30
2019-02-05T23:53:16.437Z,13.37
2019-02-05T23:55:43.188Z,13.00
2019-02-05T23:58:10.219Z,12.00
